Time;durP1;ratioP1;P1;durP2;ratioP2;P2;SDS_P1;SDS_P2;PMS_P1;PMS_P2;Temp;Humidity;BMP_temperature;BMP_pressure;BME280_temperature;BME280_humidity;BME280_pressure;Samples;Min_cycle;Max_cycle;Signal;HPM_P1;HPM_P2
2022/05/01 00:00:15;;;;;;;40.67;36.90;;;;;;;5.90;100.00;101675.53;5046604;28;20045;-82
2022/05/01 00:02:51;;;;;;;39.88;36.30;;;;;;;5.66;100.00;101677.00;5045990;28;20045;-82
2022/05/01 00:05:24;;;;;;;40.45;36.70;;;;;;;5.64;100.00;101697.38;5001873;28;20105;-82
2022/05/01 00:07:51;;;;;;;47.88;43.65;;;;;;;5.76;100.00;101690.09;5013397;28;20045;-84
2022/05/01 00:10:35;;;;;;;38.03;34.50;;;;;;;5.97;100.00;101690.63;5010372;28;20128;-83
2022/05/01 00:13:09;;;;;;;41.15;37.42;;;;;;;5.56;100.00;101699.94;5009292;28;20372;-83
2022/05/01 00:15:40;;;;;;;45.17;41.25;;;;;;;5.88;100.00;101693.34;5013756;28;20112;-85
2022/05/01 00:18:18;;;;;;;42.40;38.53;;;;;;;5.81;100.00;101694.91;5014250;28;20050;-83
2022/05/01 00:21:00;;;;;;;39.85;36.45;;;;;;;5.73;100.00;101693.03;5013819;28;20096;-82
2022/05/01 00:23:40;;;;;;;38.20;34.92;;;;;;;5.85;100.00;101697.09;5013585;28;20536;-81
2022/05/01 00:26:09;;;;;;;169.23;96.38;;;;;;;5.85;100.00;101701.53;5013905;28;20061;-84
2022/05/01 00:28:50;;;;;;;50.15;44.60;;;;;;;5.85;100.00;101696.28;5013511;28;20540;-83
2022/05/01 00:31:35;;;;;;;41.40;37.70;;;;;;;5.62;100.00;101701.97;5013801;28;20449;-83
2022/05/01 00:37:04;;;;;;;43.60;39.30;;;;;;;5.19;100.00;101692.13;5015481;28;20107;-83
2022/05/01 00:39:43;;;;;;;43.60;39.05;;;;;;;5.54;100.00;101691.38;5017486;28;20046;-83
2022/05/01 00:42:20;;;;;;;41.00;36.97;;;;;;;5.40;100.00;101689.22;5008986;28;20081;-83
2022/05/01 00:45:07;;;;;;;41.08;36.88;;;;;;;5.87;100.00;101687.25;5010553;28;20057;-82
2022/05/01 00:47:40;;;;;;;41.28;37.30;;;;;;;5.76;100.00;101684.81;5017490;28;20107;-83
2022/05/01 00:50:32;;;;;;;41.63;37.13;;;;;;;5.74;100.00;101677.03;5017505;28;20045;-83
2022/05/01 00:53:11;;;;;;;43.33;38.88;;;;;;;5.71;100.00;101679.97;5004472;28;20046;-83
2022/05/01 00:56:05;;;;;;;45.60;41.25;;;;;;;5.59;100.00;101681.19;5004225;28;20521;-83
2022/05/01 00:59:00;;;;;;;45.25;40.80;;;;;;;5.41;100.00;101680.34;5016988;28;20471;-83
2022/05/01 01:04:56;;;;;;;40.25;36.47;;;;;;;5.43;100.00;101681.84;5044376;28;20052;-82
2022/05/01 01:07:49;;;;;;;43.42;39.33;;;;;;;5.40;100.00;101684.78;5054520;28;20111;-84
2022/05/01 01:10:25;;;;;;;38.17;34.10;;;;;;;5.49;100.00;101681.25;5052803;28;20048;-82
2022/05/01 01:13:05;;;;;;;40.35;36.78;;;;;;;5.36;100.00;101677.34;5056877;28;20056;-83
2022/05/01 01:15:36;;;;;;;46.03;41.60;;;;;;;5.61;100.00;101678.41;5056834;28;20053;-82
2022/05/01 01:18:53;;;;;;;51.70;45.20;;;;;;;5.86;100.00;101672.38;5056489;28;20056;-83
2022/05/01 01:21:40;;;;;;;69.40;49.42;;;;;;;5.63;100.00;101673.84;5056668;28;20106;-83
2022/05/01 01:24:26;;;;;;;78.70;52.92;;;;;;;5.54;100.00;101685.25;5052778;28;20045;-82
2022/05/01 01:27:03;;;;;;;54.58;42.97;;;;;;;5.66;100.00;101678.81;5064488;28;20067;-82
2022/05/01 01:32:26;;;;;;;45.53;40.55;;;;;;;5.33;100.00;101689.00;5036557;28;20065;-83
2022/05/01 01:35:24;;;;;;;42.33;38.22;;;;;;;5.47;100.00;101690.28;5044425;28;20055;-82
2022/05/01 01:38:12;;;;;;;45.35;40.47;;;;;;;5.52;100.00;101685.41;5039446;28;20167;-83
2022/05/01 01:41:22;;;;;;;45.38;40.22;;;;;;;5.59;100.00;101678.56;5060620;28;20052;-81
2022/05/01 01:47:13;;;;;;;47.20;42.10;;;;;;;5.26;100.00;101686.13;5036224;28;20555;-84
2022/05/01 01:50:02;;;;;;;50.33;45.13;;;;;;;5.18;100.00;101680.75;5036756;28;20401;-84
2022/05/01 01:52:38;;;;;;;44.22;40.03;;;;;;;5.27;100.00;101681.69;5056099;28;20118;-82
2022/05/01 01:55:13;;;;;;;42.90;38.83;;;;;;;5.46;100.00;101686.00;5047215;28;20543;-82
2022/05/01 01:57:47;;;;;;;40.92;37.05;;;;;;;5.19;100.00;101685.03;5055911;28;20125;-82
2022/05/01 02:02:58;;;;;;;36.72;33.53;;;;;;;5.39;100.00;101698.13;5053948;22;20053;-82
2022/05/01 02:05:35;;;;;;;38.55;34.95;;;;;;;5.08;100.00;101700.22;5035693;28;20124;-82
2022/05/01 02:08:05;;;;;;;39.17;35.63;;;;;;;5.13;100.00;101703.25;5016098;28;20052;-82
2022/05/01 02:10:41;;;;;;;36.38;33.05;;;;;;;5.15;100.00;101699.50;5034054;28;20119;-82
2022/05/01 02:13:08;;;;;;;39.85;36.63;;;;;;;5.11;100.00;101706.00;5035008;28;20469;-82
2022/05/01 02:15:57;;;;;;;42.95;39.33;;;;;;;5.06;100.00;101710.91;5035654;28;20057;-81
2022/05/01 02:18:46;;;;;;;42.35;38.35;;;;;;;5.03;100.00;101701.47;5019762;28;20042;-82
2022/05/01 02:24:09;;;;;;;40.65;36.75;;;;;;;4.74;100.00;101716.56;5035264;28;20056;-83
2022/05/01 02:26:54;;;;;;;39.78;35.63;;;;;;;4.66;100.00;101719.06;5030468;28;20115;-82
2022/05/01 02:29:29;;;;;;;43.05;39.05;;;;;;;4.70;100.00;101712.56;5034863;28;20126;-83
2022/05/01 02:32:06;;;;;;;40.90;36.70;;;;;;;4.77;100.00;101714.47;5035150;28;20057;-83
2022/05/01 02:34:52;;;;;;;40.30;36.33;;;;;;;4.60;100.00;101704.69;5027979;28;20045;-83
2022/05/01 02:37:27;;;;;;;41.85;37.97;;;;;;;4.63;100.00;101708.81;5015648;28;20085;-82
2022/05/01 02:39:59;;;;;;;42.92;38.65;;;;;;;4.43;100.00;101719.41;5028401;28;20061;-84
2022/05/01 02:43:08;;;;;;;44.80;40.38;;;;;;;4.72;100.00;101729.00;5034990;28;20041;-82
2022/05/01 02:45:54;;;;;;;43.45;39.67;;;;;;;4.71;100.00;101737.91;5034871;28;20123;-82
2022/05/01 02:48:28;;;;;;;43.65;39.88;;;;;;;4.88;100.00;101728.44;5026972;28;20115;-82
2022/05/01 02:51:14;;;;;;;42.55;38.33;;;;;;;4.59;100.00;101724.06;5030898;28;20061;-82
2022/05/01 02:54:19;;;;;;;41.83;37.75;;;;;;;4.80;100.00;101732.59;5033900;28;20053;-84
2022/05/01 02:56:49;;;;;;;40.70;36.75;;;;;;;4.45;100.00;101728.00;5030949;28;20056;-84
2022/05/01 02:59:30;;;;;;;44.42;40.15;;;;;;;4.98;100.00;101732.69;5034329;28;20085;-83
2022/05/01 03:02:11;;;;;;;45.83;41.13;;;;;;;4.83;100.00;101729.69;5033924;28;20457;-82
2022/05/01 03:04:47;;;;;;;41.88;37.88;;;;;;;4.62;100.00;101726.41;5033203;28;20056;-81
2022/05/01 03:07:30;;;;;;;39.97;36.15;;;;;;;4.62;100.00;101726.41;5033121;28;20115;-84
2022/05/01 03:10:36;;;;;;;41.92;37.88;;;;;;;4.71;100.00;101724.72;5027898;28;20050;-83
2022/05/01 03:13:08;;;;;;;41.63;37.75;;;;;;;4.55;100.00;101720.06;5031584;28;20651;-82
2022/05/01 03:15:43;;;;;;;37.33;34.05;;;;;;;4.49;100.00;101718.84;5033962;28;20128;-83
2022/05/01 03:24:01;;;;;;;36.20;33.20;;;;;;;4.29;100.00;101711.94;5034303;28;20120;-85
2022/05/01 03:26:28;;;;;;;36.63;33.28;;;;;;;4.36;100.00;101713.88;5034166;28;20049;-84
2022/05/01 03:28:56;;;;;;;35.20;32.22;;;;;;;4.18;100.00;101717.38;5033395;28;20046;-82
2022/05/01 03:31:37;;;;;;;35.70;32.67;;;;;;;4.35;100.00;101717.47;5033708;28;20460;-84
2022/05/01 03:34:39;;;;;;;33.90;30.58;;;;;;;4.51;100.00;101714.28;5034366;28;20073;-83
2022/05/01 03:37:12;;;;;;;34.92;32.03;;;;;;;4.59;100.00;101722.25;5031672;28;20049;-84
2022/05/01 03:39:43;;;;;;;32.15;29.50;;;;;;;4.35;100.00;101721.88;5032425;28;20104;-83
2022/05/01 03:42:28;;;;;;;33.42;30.60;;;;;;;4.41;100.00;101723.13;5023291;28;20073;-84
2022/05/01 03:45:05;;;;;;;35.05;31.98;;;;;;;4.61;100.00;101721.31;5034059;28;20541;-83
2022/05/01 03:47:44;;;;;;;31.92;29.30;;;;;;;4.93;100.00;101723.53;5034024;28;20050;-84
2022/05/01 03:50:31;;;;;;;33.45;30.45;;;;;;;5.08;100.00;101732.63;5015345;28;20112;-84
2022/05/01 03:53:09;;;;;;;34.35;31.25;;;;;;;5.21;100.00;101724.41;5020331;28;20045;-84
2022/05/01 03:55:45;;;;;;;32.70;30.00;;;;;;;5.37;100.00;101723.78;5033399;28;20460;-84
2022/05/01 03:58:15;;;;;;;30.13;27.58;;;;;;;5.37;100.00;101721.97;5015267;28;20103;-83
2022/05/01 04:00:44;;;;;;;29.80;27.52;;;;;;;5.60;100.00;101725.03;5013468;28;20113;-84
2022/05/01 04:03:12;;;;;;;30.05;27.75;;;;;;;5.71;100.00;101722.16;5030484;28;20083;-84
2022/05/01 04:05:50;;;;;;;30.95;28.55;;;;;;;5.62;100.00;101723.06;5023384;28;20091;-85
2022/05/01 04:08:28;;;;;;;31.70;29.10;;;;;;;5.79;100.00;101724.06;5023369;28;20103;-84
2022/05/01 04:10:54;;;;;;;31.38;28.90;;;;;;;5.81;100.00;101713.34;5033626;28;20465;-83
2022/05/01 04:13:48;;;;;;;32.47;29.85;;;;;;;6.13;100.00;101712.84;5033556;28;20049;-85
2022/05/01 04:16:21;;;;;;;31.23;28.83;;;;;;;6.06;100.00;101714.47;5029752;28;20470;-83
2022/05/01 04:18:51;;;;;;;31.30;28.70;;;;;;;6.25;100.00;101716.91;5033772;28;20127;-84
2022/05/01 04:21:19;;;;;;;30.58;28.17;;;;;;;6.24;100.00;101706.53;5033296;28;20054;-83
2022/05/01 04:23:56;;;;;;;34.78;31.58;;;;;;;6.40;100.00;101706.63;5033719;28;20056;-84
2022/05/01 04:26:23;;;;;;;36.33;32.92;;;;;;;6.48;100.00;101716.44;5033738;28;20413;-84
2022/05/01 04:31:51;;;;;;;43.08;39.08;;;;;;;6.71;100.00;101714.91;5033144;28;20045;-84
2022/05/01 04:34:25;;;;;;;38.13;34.83;;;;;;;6.70;100.00;101715.91;5032694;28;20057;-83
2022/05/01 04:37:01;;;;;;;35.63;32.53;;;;;;;6.92;100.00;101713.72;5031306;28;20432;-85
2022/05/01 04:40:06;;;;;;;33.75;30.92;;;;;;;7.02;100.00;101709.97;5019081;28;20054;-82
2022/05/01 04:43:13;;;;;;;34.95;32.05;;;;;;;7.15;100.00;101706.06;5013708;28;20189;-83
2022/05/01 04:45:55;;;;;;;32.08;29.40;;;;;;;7.10;100.00;101706.53;5013897;28;20120;-84
2022/05/01 04:52:15;;;;;;;31.90;29.60;;;;;;;7.33;100.00;101706.78;5030955;28;20053;-83
2022/05/01 04:58:12;;;;;;;32.05;29.65;;;;;;;7.80;100.00;101699.09;5020631;28;20060;-84
2022/05/01 05:00:39;;;;;;;32.55;30.23;;;;;;;7.96;100.00;101693.03;5018268;28;20129;-83
2022/05/01 05:03:13;;;;;;;32.60;30.17;;;;;;;8.03;100.00;101695.84;5013940;28;20049;-84
2022/05/01 05:05:44;;;;;;;31.95;29.65;;;;;;;8.13;100.00;101683.25;5022066;28;20046;-83
2022/05/01 05:11:09;;;;;;;32.65;30.35;;;;;;;8.27;100.00;101698.47;5023548;28;20076;-83
2022/05/01 05:13:52;;;;;;;31.52;29.25;;;;;;;8.35;100.00;101697.66;5022583;28;20057;-83
2022/05/01 05:16:45;;;;;;;32.70;30.38;;;;;;;8.38;100.00;101693.81;5031472;28;20053;-84
2022/05/01 05:19:28;;;;;;;33.35;30.83;;;;;;;8.44;100.00;101693.16;5013802;28;20112;-85
2022/05/01 05:22:08;;;;;;;32.45;29.83;;;;;;;8.52;100.00;101695.81;5028675;28;20107;-84
2022/05/01 05:27:57;;;;;;;33.58;30.63;;;;;;;8.86;100.00;101702.69;5032069;28;20068;-85
2022/05/01 05:30:35;;;;;;;33.65;30.90;;;;;;;9.20;100.00;101707.72;5018965;28;20076;-84
2022/05/01 05:33:34;;;;;;;33.92;31.42;;;;;;;9.65;100.00;101708.75;5036954;28;20049;-85
2022/05/01 05:36:23;;;;;;;33.00;30.55;;;;;;;9.78;100.00;101705.56;5033302;28;20099;-83
2022/05/01 05:38:51;;;;;;;33.70;31.15;;;;;;;9.91;100.00;101703.13;5035672;28;20426;-84
2022/05/01 05:41:22;;;;;;;34.10;31.15;;;;;;;10.20;100.00;101698.94;5025082;28;20468;-86
2022/05/01 05:44:32;;;;;;;36.47;33.67;;;;;;;10.50;100.00;101698.00;5030684;28;20072;-85
2022/05/01 05:47:11;;;;;;;33.72;31.40;;;;;;;10.60;100.00;101700.38;5019925;28;20095;-85
2022/05/01 05:50:00;;;;;;;33.97;31.48;;;;;;;11.06;100.00;101691.41;5019176;28;20046;-84
2022/05/01 05:52:33;;;;;;;33.13;30.67;;;;;;;11.35;100.00;101704.66;5021713;28;20111;-84
2022/05/01 05:55:08;;;;;;;34.13;31.63;;;;;;;11.45;100.00;101701.69;5029430;28;20547;-82
2022/05/01 05:57:42;;;;;;;34.80;32.20;;;;;;;11.47;100.00;101705.00;5036146;28;20057;-83
2022/05/01 06:00:11;;;;;;;34.95;32.40;;;;;;;11.37;100.00;101699.94;5017640;28;20106;-85
2022/05/01 06:02:49;;;;;;;35.47;32.65;;;;;;;11.83;100.00;101706.78;5035530;28;20464;-83
2022/05/01 06:05:23;;;;;;;36.33;33.63;;;;;;;11.86;100.00;101698.44;5015911;28;20069;-85
2022/05/01 06:07:59;;;;;;;38.05;34.83;;;;;;;12.41;100.00;101696.88;5025969;28;20045;-86
2022/05/01 06:10:33;;;;;;;37.45;34.25;;;;;;;12.23;100.00;101705.34;5035354;28;20045;-87
2022/05/01 06:13:02;;;;;;;36.83;34.13;;;;;;;12.41;100.00;101712.03;5030839;28;20045;-86
2022/05/01 06:15:44;;;;;;;39.97;36.53;;;;;;;12.93;100.00;101716.88;5025377;28;21376;-88
2022/05/01 06:18:36;;;;;;;39.50;36.13;;;;;;;12.78;100.00;101713.50;5030185;28;20081;-85
2022/05/01 06:21:05;;;;;;;40.45;37.08;;;;;;;13.63;100.00;101711.44;5031927;28;20437;-86
2022/05/01 06:23:38;;;;;;;43.25;39.75;;;;;;;14.22;100.00;101713.38;5036065;28;20049;-86
2022/05/01 06:26:46;;;;;;;43.95;39.85;;;;;;;14.11;100.00;101708.63;5033301;28;20133;-85
2022/05/01 06:29:15;;;;;;;44.63;40.15;;;;;;;14.39;100.00;101703.06;5029309;28;20045;-86
2022/05/01 06:31:43;;;;;;;43.22;39.28;;;;;;;14.86;100.00;101701.16;5030112;28;20056;-86
2022/05/01 06:34:29;;;;;;;42.50;38.60;;;;;;;15.25;100.00;101708.22;5034974;28;20134;-85
2022/05/01 06:37:11;;;;;;;40.53;37.00;;;;;;;15.33;100.00;101704.47;5027178;28;20054;-86
2022/05/01 06:40:04;;;;;;;40.77;36.93;;;;;;;15.21;100.00;101704.31;5035449;28;20436;-86
2022/05/01 06:42:43;;;;;;;44.70;40.53;;;;;;;15.06;100.00;101696.53;5034967;28;20559;-89
2022/05/01 06:45:22;;;;;;;44.17;40.17;;;;;;;15.10;100.00;101694.28;5035211;28;20111;-86
2022/05/01 06:48:10;;;;;;;44.25;39.72;;;;;;;15.31;100.00;101709.19;5035114;28;20111;-89
2022/05/01 06:50:49;;;;;;;46.50;42.42;;;;;;;15.91;100.00;101714.25;5035588;28;20045;-85
2022/05/01 06:53:34;;;;;;;45.60;41.45;;;;;;;15.85;100.00;101713.25;5025427;28;20076;-87
2022/05/01 06:56:02;;;;;;;40.83;37.38;;;;;;;15.60;100.00;101715.03;5024163;28;20477;-83
2022/05/01 06:58:37;;;;;;;42.40;38.60;;;;;;;15.75;100.00;101713.72;5024681;28;20053;-86
2022/05/01 07:01:07;;;;;;;43.95;39.83;;;;;;;16.30;100.00;101715.78;5030535;28;20049;-86
2022/05/01 07:03:42;;;;;;;39.85;36.15;;;;;;;16.27;100.00;101708.19;5027619;28;20045;-85
2022/05/01 07:06:26;;;;;;;40.58;37.10;;;;;;;16.63;100.00;101711.97;5022175;28;20057;-87
2022/05/01 07:09:05;;;;;;;37.22;33.95;;;;;;;16.52;100.00;101710.88;5025436;28;20089;-87
2022/05/01 07:11:54;;;;;;;42.08;37.85;;;;;;;16.66;100.00;101720.41;5019121;28;20084;-86
2022/05/01 07:14:21;;;;;;;35.78;32.75;;;;;;;17.12;100.00;101716.41;5028630;28;20061;-86
2022/05/01 07:16:49;;;;;;;32.20;29.90;;;;;;;17.17;100.00;101716.56;5033661;28;20123;-85
2022/05/01 07:19:22;;;;;;;32.28;29.50;;;;;;;17.43;100.00;101706.53;5016434;28;20049;-85
2022/05/01 07:21:58;;;;;;;34.08;31.38;;;;;;;17.30;100.00;101718.25;5034505;28;20053;-87
2022/05/01 07:24:26;;;;;;;31.80;29.38;;;;;;;17.30;100.00;101712.06;5034271;28;20111;-85
2022/05/01 07:26:54;;;;;;;29.23;26.92;;;;;;;16.95;100.00;101704.66;5034333;28;20045;-86
2022/05/01 07:29:26;;;;;;;29.95;27.63;;;;;;;17.24;100.00;101711.09;5031953;28;20375;-85
2022/05/01 07:31:58;;;;;;;31.40;29.00;;;;;;;17.34;100.00;101711.41;5035483;28;20045;-85
2022/05/01 07:34:28;;;;;;;30.77;28.58;;;;;;;17.53;100.00;101712.16;5036876;28;20041;-86
2022/05/01 07:37:24;;;;;;;30.58;28.50;;;;;;;17.65;100.00;101714.09;5018754;28;20045;-84
2022/05/01 07:40:03;;;;;;;29.80;27.70;;;;;;;17.88;100.00;101714.16;5021252;28;20050;-84
2022/05/01 07:43:13;;;;;;;31.15;29.08;;;;;;;17.84;100.00;101721.88;5022760;28;20119;-87
2022/05/01 07:45:49;;;;;;;31.13;29.13;;;;;;;18.43;100.00;101710.38;5036143;28;20049;-85
2022/05/01 07:48:17;;;;;;;30.58;28.67;;;;;;;18.66;100.00;101713.03;5024189;28;20126;-86
2022/05/01 07:50:46;;;;;;;30.67;28.67;;;;;;;18.07;99.57;101717.59;5027819;28;20114;-84
2022/05/01 07:53:16;;;;;;;32.88;30.77;;;;;;;18.28;98.29;101721.59;5024887;28;20477;-84
2022/05/01 07:56:25;;;;;;;30.73;28.63;;;;;;;18.34;91.81;101719.88;5035504;28;20466;-85
2022/05/01 07:58:56;;;;;;;56.03;51.15;;;;;;;18.70;100.00;101713.41;5016781;28;20050;-86
2022/05/01 08:01:23;;;;;;;34.92;32.30;;;;;;;18.11;100.00;101715.28;5026397;28;20045;-84
2022/05/01 08:07:15;;;;;;;30.80;28.73;;;;;;;18.85;98.45;101716.47;5034735;28;20057;-86
2022/05/01 08:09:51;;;;;;;29.95;27.85;;;;;;;18.71;91.84;101717.72;5028887;28;20045;-85
2022/05/01 08:12:28;;;;;;;30.92;28.92;;;;;;;18.89;89.99;101714.13;5030728;28;20053;-85
2022/05/01 08:14:55;;;;;;;32.58;30.42;;;;;;;18.65;88.48;101719.50;5034981;28;20049;-84
2022/05/01 08:17:40;;;;;;;30.65;28.55;;;;;;;18.43;85.15;101718.47;5034792;28;20115;-84
2022/05/01 08:23:11;;;;;;;35.17;32.42;;;;;;;18.95;100.00;101705.91;5032065;28;20045;-85
2022/05/01 08:25:44;;;;;;;31.70;29.70;;;;;;;18.66;87.50;101698.78;5034077;28;20049;-87
2022/05/01 08:28:30;;;;;;;31.13;29.13;;;;;;;18.85;87.48;101700.31;5020117;28;20049;-87
2022/05/01 08:30:57;;;;;;;40.28;36.97;;;;;;;18.82;95.55;101700.78;5034120;28;20052;-86
2022/05/01 08:33:24;;;;;;;144.43;102.75;;;;;;;19.36;99.54;101700.50;5035385;28;20049;-86
2022/05/01 08:35:58;;;;;;;44.33;40.03;;;;;;;19.71;97.20;101694.97;5030148;28;20045;-84
2022/05/01 08:38:26;;;;;;;59.08;53.15;;;;;;;19.58;98.96;101697.97;5033708;28;20045;-84
2022/05/01 08:41:09;;;;;;;45.08;41.28;;;;;;;19.53;91.39;101689.78;5034370;28;20103;-85
2022/05/01 08:43:45;;;;;;;38.92;35.55;;;;;;;19.68;85.06;101688.19;5034347;28;20418;-85
2022/05/01 08:46:51;;;;;;;34.25;31.90;;;;;;;19.44;83.15;101692.84;5019828;28;20534;-84
2022/05/01 08:49:20;;;;;;;34.90;32.22;;;;;;;19.42;78.35;101689.56;5014905;28;20107;-85
2022/05/01 08:51:52;;;;;;;36.88;33.80;;;;;;;19.52;85.81;101697.03;5033494;28;20107;-83
2022/05/01 08:54:26;;;;;;;34.03;31.42;;;;;;;19.56;81.10;101689.28;5034628;28;20115;-86
2022/05/01 08:56:56;;;;;;;43.00;39.00;;;;;;;19.85;79.26;101693.59;5028294;28;20045;-85
2022/05/01 08:59:38;;;;;;;32.53;30.33;;;;;;;19.78;74.00;101694.81;5027207;28;20079;-85
2022/05/01 09:02:10;;;;;;;32.40;30.00;;;;;;;19.79;83.56;101693.75;5027875;28;20057;-86
2022/05/01 09:04:37;;;;;;;30.88;28.70;;;;;;;19.33;68.90;101684.81;5026975;28;20049;-84
2022/05/01 09:07:06;;;;;;;35.17;32.15;;;;;;;19.74;76.43;101699.06;5022891;28;20046;-86
2022/05/01 09:09:50;;;;;;;35.40;32.50;;;;;;;20.02;69.74;101687.38;5033452;28;20053;-84
2022/05/01 09:15:07;;;;;;;30.88;28.38;;;;;;;21.00;77.51;101680.44;5031323;28;20493;-85
2022/05/01 09:18:00;;;;;;;35.17;32.38;;;;;;;20.66;64.97;101677.00;5038328;28;20401;-86
2022/05/01 09:20:30;;;;;;;32.08;29.52;;;;;;;20.43;64.91;101682.63;5017689;28;20081;-84
2022/05/01 09:22:59;;;;;;;31.88;29.48;;;;;;;20.77;65.41;101683.38;5023195;28;20484;-83
2022/05/01 09:28:53;;;;;;;31.13;28.73;;;;;;;20.69;62.48;101664.91;5031765;28;20060;-85
2022/05/01 09:31:46;;;;;;;42.72;38.65;;;;;;;20.84;64.10;101664.28;5036758;28;20049;-82
2022/05/01 09:34:19;;;;;;;32.20;30.10;;;;;;;21.19;59.62;101664.69;5019981;28;20071;-83
2022/05/01 09:36:46;;;;;;;32.03;29.90;;;;;;;21.65;61.30;101669.75;5036231;28;20055;-84
2022/05/01 09:39:22;;;;;;;36.20;33.67;;;;;;;21.46;64.00;101663.91;5022487;28;20141;-85
2022/05/01 09:41:50;;;;;;;31.90;29.70;;;;;;;21.00;61.41;101658.81;5029525;28;20140;-86
2022/05/01 09:45:02;;;;;;;32.75;30.13;;;;;;;21.66;53.58;101653.28;5037547;28;20484;-85
2022/05/01 09:47:40;;;;;;;32.90;30.60;;;;;;;21.35;62.11;101659.44;5026761;28;20088;-85
2022/05/01 09:50:11;;;;;;;33.60;31.13;;;;;;;21.89;64.07;101654.81;5035679;28;20099;-84
2022/05/01 09:53:02;;;;;;;32.30;29.85;;;;;;;22.45;62.69;101645.44;5020685;28;20052;-83
2022/05/01 09:55:38;;;;;;;33.03;30.83;;;;;;;21.45;62.66;101651.47;5024029;28;20128;-83
2022/05/01 09:58:07;;;;;;;32.40;30.10;;;;;;;21.09;63.26;101645.69;5024403;28;20117;-83
2022/05/01 10:00:40;;;;;;;32.83;30.48;;;;;;;21.08;66.35;101651.31;5032121;28;20046;-83
2022/05/01 10:03:29;;;;;;;32.40;30.20;;;;;;;21.31;70.69;101647.53;5017098;28;20057;-86
2022/05/01 10:05:58;;;;;;;33.70;30.98;;;;;;;21.20;59.95;101641.19;5025658;28;20081;-84
2022/05/01 10:08:28;;;;;;;41.97;38.05;;;;;;;20.66;63.38;101641.13;5026740;28;20058;-84
2022/05/01 10:11:02;;;;;;;39.25;36.40;;;;;;;20.72;62.39;101638.22;5035811;28;20049;-85
2022/05/01 10:13:46;;;;;;;32.72;30.23;;;;;;;21.10;62.07;101635.69;5031348;28;20049;-85
2022/05/01 10:16:15;;;;;;;99.50;51.17;;;;;;;21.78;62.09;101626.06;5017444;28;20116;-84
2022/05/01 10:18:49;;;;;;;36.97;34.30;;;;;;;21.54;59.60;101633.69;5017320;28;20111;-84
2022/05/01 10:21:16;;;;;;;51.92;39.70;;;;;;;21.40;59.63;101632.53;5032047;28;20107;-84
2022/05/01 10:23:46;;;;;;;33.53;31.08;;;;;;;20.69;64.27;101630.63;5031059;28;20103;-84
2022/05/01 10:26:18;;;;;;;40.85;37.30;;;;;;;20.52;63.41;101622.59;5029969;28;20054;-84
2022/05/01 10:29:17;;;;;;;48.20;43.25;;;;;;;20.28;63.57;101630.06;5020525;28;20046;-83
2022/05/01 10:35:41;;;;;;;35.85;32.95;;;;;;;21.83;60.54;101628.00;5026730;28;20084;-83
2022/05/01 10:38:33;;;;;;;32.15;30.02;;;;;;;21.71;59.44;101606.56;5021544;28;20140;-84
2022/05/01 10:41:01;;;;;;;34.08;30.90;;;;;;;22.28;59.51;101610.47;5025302;28;20045;-84
2022/05/01 10:43:56;;;;;;;34.33;31.67;;;;;;;21.87;57.62;101612.88;5017792;28;20046;-82
2022/05/01 10:46:53;;;;;;;34.72;32.03;;;;;;;21.42;56.38;101611.44;5018803;28;20081;-84
2022/05/01 10:49:33;;;;;;;36.28;33.53;;;;;;;21.06;56.42;101608.38;5024653;28;20062;-81
2022/05/01 10:52:20;;;;;;;36.05;33.70;;;;;;;20.77;57.42;101605.91;5027552;28;20053;-84
2022/05/01 10:54:56;;;;;;;34.13;31.52;;;;;;;20.93;56.67;101595.25;5020331;28;20041;-83
2022/05/01 10:57:24;;;;;;;30.45;28.60;;;;;;;21.25;58.74;101582.63;5035125;28;20049;-82
2022/05/01 11:00:11;;;;;;;33.85;31.65;;;;;;;22.22;53.35;101566.34;5035751;28;20128;-81
2022/05/01 11:02:43;;;;;;;32.38;30.13;;;;;;;21.04;61.83;101581.63;5029826;28;20057;-82
2022/05/01 11:05:34;;;;;;;33.13;30.75;;;;;;;22.16;59.06;101570.91;5036786;28;20045;-81
2022/05/01 11:08:15;;;;;;;32.47;30.27;;;;;;;22.05;55.81;101568.38;5015096;28;20053;-83
2022/05/01 11:10:42;;;;;;;32.67;30.67;;;;;;;21.62;49.45;101564.84;5027042;28;20108;-82
2022/05/01 11:17:09;;;;;;;31.23;29.13;;;;;;;21.59;56.62;101554.56;5035247;28;20044;-87
2022/05/01 11:20:04;;;;;;;34.58;31.98;;;;;;;20.75;54.55;101561.31;5032078;28;20041;-86
2022/05/01 11:22:31;;;;;;;32.90;30.63;;;;;;;20.69;53.32;101555.06;5034483;28;20178;-86
2022/05/01 11:25:40;;;;;;;33.15;30.85;;;;;;;19.73;64.74;101557.28;5035170;28;20076;-85
2022/05/01 11:28:58;;;;;;;31.85;29.63;;;;;;;20.03;63.32;101548.81;5029985;28;20135;-85
2022/05/01 11:31:47;;;;;;;32.50;30.30;;;;;;;20.45;61.18;101548.28;5025423;28;20104;-85
2022/05/01 11:34:34;;;;;;;32.20;30.10;;;;;;;20.87;56.38;101548.50;5018411;28;20053;-85
2022/05/01 11:37:24;;;;;;;33.72;31.33;;;;;;;20.32;55.60;101538.69;5033779;28;20119;-86
2022/05/01 11:40:26;;;;;;;32.22;30.02;;;;;;;20.38;59.48;101543.06;5034681;28;20481;-85
2022/05/01 11:43:16;;;;;;;32.00;29.95;;;;;;;20.76;54.17;101536.78;5034302;28;20049;-83
2022/05/01 11:45:51;;;;;;;31.55;29.25;;;;;;;21.09;58.71;101532.25;5034033;28;20128;-83
2022/05/01 11:48:19;;;;;;;33.13;31.02;;;;;;;21.44;57.26;101522.84;5033639;28;20103;-85
2022/05/01 11:50:53;;;;;;;32.40;30.20;;;;;;;21.05;49.22;101520.31;5024282;28;20494;-83
2022/05/01 11:53:22;;;;;;;32.92;30.73;;;;;;;21.63;53.60;101515.94;5019737;28;20061;-82
2022/05/01 12:04:29;;;;;;;30.00;28.20;;;;;;;22.34;46.45;101485.75;5031513;28;20095;-82
2022/05/01 12:07:03;;;;;;;30.33;28.15;;;;;;;22.08;51.57;101481.28;5033653;28;20049;-81
2022/05/01 12:09:31;;;;;;;31.33;29.30;;;;;;;21.09;57.67;101478.25;5029503;28;20053;-83
2022/05/01 12:11:58;;;;;;;30.27;28.27;;;;;;;22.08;47.50;101475.88;5023317;28;20049;-83
2022/05/01 12:14:29;;;;;;;29.30;27.20;;;;;;;22.00;45.99;101471.81;5023105;28;20053;-81
2022/05/01 12:17:07;;;;;;;30.75;28.27;;;;;;;21.54;46.74;101458.03;5030758;28;20108;-81
2022/05/01 12:19:39;;;;;;;30.75;28.77;;;;;;;22.22;48.70;101460.00;5031512;28;20128;-83
2022/05/01 12:22:07;;;;;;;30.35;28.55;;;;;;;22.18;45.52;101448.91;5014293;28;20056;-80
2022/05/01 12:24:38;;;;;;;30.35;28.48;;;;;;;23.02;46.10;101450.38;5032851;28;20087;-81
2022/05/01 12:27:07;;;;;;;29.50;27.52;;;;;;;22.83;45.43;101441.16;5025867;28;20428;-82
2022/05/01 12:29:38;;;;;;;29.60;27.63;;;;;;;22.73;47.91;101441.16;5019307;28;20058;-82
2022/05/01 12:32:08;;;;;;;30.35;28.35;;;;;;;22.39;44.71;101437.06;5029629;28;20045;-81
2022/05/01 12:34:56;;;;;;;30.00;28.13;;;;;;;23.25;42.97;101432.75;5031036;28;20458;-81
2022/05/01 12:37:27;;;;;;;29.88;27.80;;;;;;;22.72;40.51;101436.81;5023567;28;20128;-82
2022/05/01 12:39:58;;;;;;;28.80;26.80;;;;;;;22.47;39.99;101424.06;5027966;28;20084;-83
2022/05/01 12:45:21;;;;;;;29.42;27.23;;;;;;;22.63;39.36;101415.72;5037065;28;20111;-81
2022/05/01 12:47:51;;;;;;;53.92;49.92;;;;;;;22.71;35.68;101410.84;5024261;28;20478;-83
2022/05/01 12:50:28;;;;;;;62.25;56.88;;;;;;;22.50;39.10;101416.22;5029068;28;20050;-82
2022/05/01 12:52:58;;;;;;;58.28;53.28;;;;;;;21.85;39.77;101399.53;5033397;28;20045;-81
2022/05/01 12:55:34;;;;;;;60.08;54.80;;;;;;;21.92;39.71;101396.59;5029583;28;20119;-81
2022/05/01 12:58:03;;;;;;;60.15;55.20;;;;;;;22.50;39.73;101383.75;5036996;28;20128;-82
2022/05/01 13:00:40;;;;;;;60.35;55.55;;;;;;;22.02;42.03;101396.59;5036438;28;20148;-82
2022/05/01 13:03:24;;;;;;;59.67;54.67;;;;;;;22.08;42.97;101390.13;5033366;28;20065;-82
2022/05/01 13:06:02;;;;;;;61.60;56.28;;;;;;;22.50;39.37;101388.34;5035079;28;20064;-82
2022/05/01 13:08:34;;;;;;;57.63;52.55;;;;;;;22.91;39.65;101385.66;5023997;28;20057;-82